createdAt,value
2018-08-03T18:12:19.864Z,31.42
2018-08-03T18:14:50.540Z,31.31
2018-08-03T18:17:21.377Z,31.17
2018-08-03T18:19:51.854Z,31.14
2018-08-03T18:22:22.179Z,31.19
2018-08-03T18:24:52.418Z,31.03
2018-08-03T18:27:22.610Z,30.87
2018-08-03T18:29:52.722Z,30.75
2018-08-03T18:32:23.280Z,30.63
2018-08-03T18:34:53.999Z,30.47
2018-08-03T18:37:24.779Z,30.29
2018-08-03T18:39:55.472Z,30.12
2018-08-03T18:42:26.155Z,30.03
2018-08-03T18:44:56.740Z,29.91
2018-08-03T18:47:27.417Z,29.78
2018-08-03T18:49:58.003Z,29.64
2018-08-03T18:52:28.629Z,29.38
2018-08-03T18:54:59.095Z,29.26
2018-08-03T18:57:29.911Z,29.20
2018-08-03T19:00:00.452Z,29.11
2018-08-03T19:02:30.993Z,28.95
2018-08-03T19:05:01.429Z,28.84
2018-08-03T19:07:31.986Z,28.71
2018-08-03T19:10:02.623Z,28.64
2018-08-03T19:12:33.254Z,28.56
2018-08-03T19:15:03.930Z,28.57
2018-08-03T19:17:34.508Z,28.47
2018-08-03T19:20:05.588Z,28.39
2018-08-03T19:22:36.110Z,28.33
2018-08-03T19:25:06.853Z,28.23
2018-08-03T19:27:37.447Z,28.14
2018-08-03T19:30:08.203Z,28.04
2018-08-03T19:32:38.757Z,27.95
2018-08-03T19:35:09.364Z,27.88
2018-08-03T19:37:39.969Z,27.83
2018-08-03T19:40:10.508Z,27.75
2018-08-03T19:42:41.107Z,27.68
2018-08-03T19:45:11.445Z,27.53
2018-08-03T19:47:41.972Z,27.44
2018-08-03T19:50:12.414Z,27.28
2018-08-03T19:52:42.918Z,27.25
2018-08-03T19:55:13.514Z,27.24
2018-08-03T19:57:44.185Z,27.16
2018-08-03T20:00:14.783Z,27.08
2018-08-03T20:02:46.073Z,27.02
2018-08-03T20:05:16.547Z,26.97
2018-08-03T20:07:47.118Z,26.92
2018-08-03T20:10:17.815Z,26.88
2018-08-03T20:12:48.253Z,26.82
2018-08-03T20:15:18.720Z,26.77
2018-08-03T20:17:49.310Z,26.75
2018-08-03T20:20:19.818Z,26.69
2018-08-03T20:22:50.465Z,26.64
2018-08-03T20:25:21.145Z,26.53
2018-08-03T20:27:51.999Z,26.35
2018-08-03T20:30:22.625Z,26.32
2018-08-03T20:32:53.297Z,26.37
2018-08-03T20:35:23.784Z,26.64
2018-08-03T20:37:54.298Z,26.81
2018-08-03T20:40:24.751Z,26.96
2018-08-03T20:42:55.194Z,27.02
2018-08-03T20:45:25.806Z,26.98
2018-08-03T20:47:56.389Z,27.04
2018-08-03T20:50:26.979Z,27.01
2018-08-03T20:52:57.555Z,27.01
2018-08-03T20:55:28.242Z,27.00
2018-08-03T20:57:59.076Z,26.99
2018-08-03T21:00:29.142Z,26.94
2018-08-03T21:02:59.332Z,26.88
2018-08-03T21:05:29.459Z,26.82
2018-08-03T21:07:59.581Z,26.85
2018-08-03T21:10:29.651Z,26.78
2018-08-03T21:12:59.824Z,26.67
2018-08-03T21:15:30.254Z,26.51
2018-08-03T21:18:00.744Z,26.55
2018-08-03T21:20:31.237Z,26.41
2018-08-03T21:23:01.698Z,26.42
2018-08-03T21:25:32.282Z,26.41
2018-08-03T21:28:02.745Z,26.39
2018-08-03T21:30:33.259Z,26.35
2018-08-03T21:33:03.826Z,26.43
2018-08-03T21:35:34.311Z,26.40
2018-08-03T21:38:04.911Z,26.33
2018-08-03T21:40:34.940Z,26.27
2018-08-03T21:43:05.480Z,26.10
2018-08-03T21:45:35.526Z,25.98
2018-08-03T21:48:06.312Z,25.96
2018-08-03T21:50:36.776Z,25.89
2018-08-03T21:53:07.461Z,25.87
2018-08-03T21:55:38.080Z,26.03
2018-08-03T21:58:08.444Z,26.03
2018-08-03T22:00:38.994Z,26.13
2018-08-03T22:03:09.098Z,25.99
2018-08-03T22:05:39.662Z,25.95
2018-08-03T22:08:10.271Z,26.13
2018-08-03T22:10:40.745Z,26.12
2018-08-03T22:13:11.327Z,26.09
2018-08-03T22:15:41.944Z,25.95
2018-08-03T22:18:11.715Z,25.73
2018-08-03T22:20:41.445Z,25.81
2018-08-03T22:23:11.274Z,25.75
2018-08-03T22:25:41.028Z,25.65
2018-08-03T22:28:10.825Z,25.64
2018-08-03T22:30:41.236Z,25.57
2018-08-03T22:33:11.700Z,25.53
2018-08-03T22:35:42.198Z,25.54
2018-08-03T22:38:13.699Z,25.53
2018-08-03T22:40:44.296Z,25.57
2018-08-03T22:43:14.869Z,25.52
2018-08-03T22:45:45.450Z,25.63
2018-08-03T22:48:15.896Z,25.50
2018-08-03T22:50:46.408Z,25.55
2018-08-03T22:53:16.992Z,25.63
2018-08-03T22:55:47.739Z,25.64
2018-08-03T22:58:18.371Z,25.46
2018-08-03T23:00:49.006Z,25.63
2018-08-03T23:03:19.771Z,25.63
2018-08-03T23:05:49.773Z,25.68
2018-08-03T23:08:20.277Z,25.60
2018-08-03T23:10:50.802Z,25.73
2018-08-03T23:13:21.418Z,25.68
2018-08-03T23:15:51.964Z,25.65
2018-08-03T23:18:22.603Z,25.60
2018-08-03T23:20:53.156Z,25.47
2018-08-03T23:23:23.856Z,25.45
2018-08-03T23:25:54.288Z,25.31
2018-08-03T23:28:24.977Z,25.27
2018-08-03T23:30:55.550Z,25.08
2018-08-03T23:33:26.157Z,24.86
2018-08-03T23:35:56.383Z,24.85
2018-08-03T23:38:26.915Z,24.67
2018-08-03T23:40:56.991Z,24.59
2018-08-03T23:43:27.483Z,24.47
2018-08-03T23:45:58.059Z,24.39
2018-08-03T23:48:28.875Z,24.33
2018-08-03T23:50:59.511Z,24.22
2018-08-03T23:53:30.093Z,24.12
2018-08-03T23:56:00.683Z,24.12
2018-08-03T23:58:31.287Z,24.06
